createdAt,value
2023-02-12T00:01:12.451Z,43.55
2023-02-12T00:03:40.033Z,41.30
2023-02-12T00:06:08.259Z,37.30
2023-02-12T00:08:35.102Z,39.60
2023-02-12T00:11:11.579Z,39.85
2023-02-12T00:13:38.656Z,40.38
2023-02-12T00:16:07.303Z,35.67
2023-02-12T00:18:34.216Z,36.95
2023-02-12T00:21:01.680Z,40.72
2023-02-12T00:23:28.636Z,35.47
2023-02-12T00:25:55.670Z,36.97
2023-02-12T00:28:22.625Z,37.58
2023-02-12T00:30:49.551Z,37.83
2023-02-12T00:33:16.583Z,35.00
2023-02-12T00:35:43.392Z,33.85
2023-02-12T00:38:10.107Z,41.15
2023-02-12T00:40:36.903Z,37.92
2023-02-12T00:43:03.676Z,41.97
2023-02-12T00:45:30.383Z,37.22
2023-02-12T00:47:57.136Z,39.58
2023-02-12T00:50:23.869Z,39.65
2023-02-12T00:52:50.579Z,34.42
2023-02-12T00:55:17.533Z,34.50
2023-02-12T00:57:44.218Z,34.22
2023-02-12T01:00:11.625Z,37.10
2023-02-12T01:02:38.338Z,36.63
2023-02-12T01:05:05.257Z,39.03
2023-02-12T01:07:32.038Z,36.17
2023-02-12T01:09:58.811Z,40.42
2023-02-12T01:12:25.550Z,33.60
2023-02-12T01:14:52.357Z,35.35
2023-02-12T01:17:19.045Z,36.97
2023-02-12T01:19:45.809Z,41.08
2023-02-12T01:22:12.484Z,40.60
2023-02-12T01:24:39.188Z,43.67
2023-02-12T01:27:05.887Z,35.28
2023-02-12T01:29:32.549Z,44.65
2023-02-12T01:31:59.468Z,41.72
2023-02-12T01:34:26.282Z,45.33
2023-02-12T01:36:52.962Z,32.53
2023-02-12T01:39:19.722Z,39.30
2023-02-12T01:41:46.999Z,38.38
2023-02-12T01:44:25.069Z,46.60
2023-02-12T01:47:03.300Z,33.17
2023-02-12T01:49:42.840Z,35.97
2023-02-12T01:52:26.629Z,38.63
2023-02-12T01:54:57.172Z,37.17
2023-02-12T01:57:25.594Z,40.30
2023-02-12T01:59:56.213Z,36.15
2023-02-12T02:02:22.898Z,41.40
2023-02-12T02:04:57.618Z,34.25
2023-02-12T02:07:24.548Z,50.72
2023-02-12T02:09:51.927Z,39.00
2023-02-12T02:12:18.851Z,37.47
2023-02-12T02:14:46.139Z,42.65
2023-02-12T02:17:41.682Z,36.08
2023-02-12T02:20:45.706Z,33.42
2023-02-12T02:23:35.530Z,42.72
2023-02-12T02:26:11.229Z,38.40
2023-02-12T02:31:25.890Z,31.35
2023-02-12T02:34:16.524Z,36.20
2023-02-12T02:37:00.844Z,35.28
2023-02-12T02:39:43.238Z,47.55
2023-02-12T02:42:19.845Z,42.22
2023-02-12T02:44:54.487Z,37.55
2023-02-12T02:47:43.975Z,37.60
2023-02-12T02:50:20.421Z,33.97
2023-02-12T02:52:52.094Z,38.92
2023-02-12T02:55:21.930Z,39.72
2023-02-12T02:57:58.665Z,32.70
2023-02-12T03:00:33.072Z,42.20
2023-02-12T03:03:10.670Z,36.05
2023-02-12T03:05:45.352Z,45.45
2023-02-12T03:08:19.706Z,41.65
2023-02-12T03:10:52.959Z,38.45
2023-02-12T03:13:35.777Z,41.17
2023-02-12T03:16:18.273Z,38.03
2023-02-12T03:18:56.875Z,42.75
2023-02-12T03:21:31.446Z,42.40
2023-02-12T03:24:05.187Z,38.33
2023-02-12T03:27:06.337Z,36.45
2023-02-12T03:29:33.153Z,40.22
2023-02-12T03:32:08.228Z,43.00
2023-02-12T03:34:39.341Z,35.90
2023-02-12T03:37:12.707Z,48.05
2023-02-12T03:40:09.804Z,36.63
2023-02-12T03:43:01.465Z,37.85
2023-02-12T03:45:40.619Z,43.67
2023-02-12T03:48:46.225Z,36.65
2023-02-12T03:51:21.803Z,45.05
2023-02-12T03:53:49.302Z,37.22
2023-02-12T03:56:23.883Z,45.28
2023-02-12T03:58:50.536Z,44.00
2023-02-12T04:01:17.668Z,52.65
2023-02-12T04:03:44.374Z,39.78
2023-02-12T04:06:24.953Z,42.55
2023-02-12T04:08:52.917Z,49.85
2023-02-12T04:11:49.347Z,44.15
2023-02-12T04:14:43.195Z,46.05
2023-02-12T04:17:19.869Z,44.30
2023-02-12T04:19:55.216Z,45.25
2023-02-12T04:22:45.294Z,43.65
2023-02-12T04:25:20.613Z,48.40
2023-02-12T04:27:50.046Z,48.13
2023-02-12T04:30:30.510Z,50.20
2023-02-12T04:33:02.538Z,51.45
2023-02-12T04:35:47.379Z,44.28
2023-02-12T04:38:26.673Z,49.83
2023-02-12T04:40:53.759Z,49.03
2023-02-12T04:43:34.759Z,42.90
2023-02-12T04:46:05.203Z,45.65
2023-02-12T04:48:32.371Z,48.00
2023-02-12T04:50:59.041Z,44.58
2023-02-12T04:53:25.891Z,47.40
2023-02-12T04:55:52.619Z,48.55
2023-02-12T04:58:19.518Z,44.78
2023-02-12T05:00:46.227Z,46.22
2023-02-12T05:03:12.939Z,44.80
2023-02-12T05:05:39.693Z,44.08
2023-02-12T05:08:06.346Z,43.78
2023-02-12T05:10:33.059Z,45.80
2023-02-12T05:12:59.794Z,43.42
2023-02-12T05:15:26.837Z,41.65
2023-02-12T05:17:53.627Z,43.08
2023-02-12T05:20:20.477Z,45.05
2023-02-12T05:22:52.345Z,48.58
2023-02-12T05:25:19.027Z,42.35
2023-02-12T05:27:45.695Z,43.08
2023-02-12T05:30:12.777Z,42.75
2023-02-12T05:32:39.429Z,46.30
2023-02-12T05:35:06.706Z,40.97
2023-02-12T05:37:36.002Z,45.45
2023-02-12T05:40:05.056Z,41.72
2023-02-12T05:42:32.210Z,42.95
2023-02-12T05:44:58.864Z,40.65
2023-02-12T05:47:25.551Z,47.35
2023-02-12T05:49:52.229Z,56.83
2023-02-12T05:52:18.954Z,46.00
2023-02-12T05:54:48.620Z,49.53
2023-02-12T05:57:15.276Z,39.50
2023-02-12T05:59:41.975Z,37.28
2023-02-12T06:02:08.676Z,37.15
2023-02-12T06:04:35.351Z,35.78
2023-02-12T06:07:02.019Z,46.28
2023-02-12T06:09:28.718Z,42.42
2023-02-12T06:11:55.543Z,41.90
2023-02-12T06:14:22.241Z,35.33
2023-02-12T06:16:50.641Z,45.03
2023-02-12T06:19:18.424Z,46.83
2023-02-12T06:21:45.279Z,48.97
2023-02-12T06:24:16.528Z,43.92
2023-02-12T06:26:43.565Z,42.25
2023-02-12T06:29:10.591Z,39.20
2023-02-12T06:31:37.439Z,42.88
2023-02-12T06:34:07.765Z,44.58
2023-02-12T06:36:36.946Z,37.30
2023-02-12T06:39:03.790Z,44.38
2023-02-12T06:41:30.801Z,42.60
2023-02-12T06:43:57.777Z,40.15
2023-02-12T06:46:24.854Z,46.70
2023-02-12T06:48:59.116Z,42.78
2023-02-12T06:51:27.389Z,45.65
2023-02-12T06:53:54.891Z,38.58
2023-02-12T06:56:23.294Z,39.90
2023-02-12T06:58:55.623Z,40.67
2023-02-12T07:01:25.049Z,41.30
2023-02-12T07:04:00.325Z,36.83
2023-02-12T07:06:28.295Z,39.63
2023-02-12T07:08:56.001Z,38.80
2023-02-12T07:11:31.603Z,38.50
2023-02-12T07:13:58.400Z,36.25
2023-02-12T07:16:25.863Z,39.85
2023-02-12T07:18:52.686Z,37.80
2023-02-12T07:21:19.699Z,41.60
2023-02-12T07:23:50.511Z,41.67
2023-02-12T07:26:19.400Z,36.53
2023-02-12T07:28:46.096Z,34.70
2023-02-12T07:31:18.974Z,40.78
2023-02-12T07:33:46.202Z,35.25
2023-02-12T07:36:17.755Z,36.83
2023-02-12T07:38:44.846Z,29.27
2023-02-12T07:41:16.589Z,34.92
2023-02-12T07:43:45.716Z,28.45
2023-02-12T07:46:22.410Z,34.85
2023-02-12T07:48:50.773Z,31.27
2023-02-12T07:51:18.335Z,35.47
2023-02-12T07:53:45.622Z,36.90
2023-02-12T07:56:24.351Z,36.22
2023-02-12T07:58:53.828Z,31.85
2023-02-12T08:01:21.861Z,34.28
2023-02-12T08:03:50.282Z,37.38
2023-02-12T08:06:23.473Z,35.38
2023-02-12T08:08:55.529Z,35.08
2023-02-12T08:11:23.375Z,33.65
2023-02-12T08:13:51.131Z,32.17
2023-02-12T08:16:20.250Z,28.58
2023-02-12T08:18:47.322Z,35.17
2023-02-12T08:21:19.053Z,32.35
2023-02-12T08:23:46.657Z,37.90
2023-02-12T08:26:16.170Z,36.15
2023-02-12T08:28:48.922Z,34.10
2023-02-12T08:31:22.092Z,35.72
2023-02-12T08:33:50.087Z,33.05
2023-02-12T08:36:19.846Z,31.05
2023-02-12T08:38:47.843Z,32.47
2023-02-12T08:41:22.471Z,33.55
2023-02-12T08:43:50.422Z,27.10
2023-02-12T08:46:20.203Z,36.63
2023-02-12T08:48:48.326Z,38.25
2023-02-12T08:51:21.271Z,34.85
2023-02-12T08:53:51.721Z,33.25
2023-02-12T08:56:19.047Z,31.88
2023-02-12T08:58:46.547Z,33.22
2023-02-12T09:01:16.877Z,40.25
2023-02-12T09:03:44.716Z,29.60
2023-02-12T09:06:11.972Z,35.22
2023-02-12T09:08:39.700Z,37.40
2023-02-12T09:11:08.742Z,35.10
2023-02-12T09:13:36.446Z,33.17
2023-02-12T09:16:04.776Z,38.20
2023-02-12T09:18:31.738Z,34.05
2023-02-12T09:21:08.009Z,30.67
2023-02-12T09:23:35.189Z,34.88
2023-02-12T09:26:05.750Z,36.63
2023-02-12T09:28:32.614Z,32.80
2023-02-12T09:30:59.477Z,32.42
2023-02-12T09:33:26.414Z,43.05
2023-02-12T09:35:53.338Z,31.45
2023-02-12T09:38:20.153Z,29.20
2023-02-12T09:41:08.710Z,32.58
2023-02-12T09:44:11.651Z,36.88
2023-02-12T09:47:03.011Z,35.08
2023-02-12T09:49:47.903Z,32.30
2023-02-12T09:52:22.294Z,30.58
2023-02-12T09:54:50.149Z,34.97
2023-02-12T09:57:30.421Z,31.45
2023-02-12T10:00:07.679Z,33.33
2023-02-12T10:02:39.757Z,30.45
2023-02-12T10:05:16.808Z,30.58
2023-02-12T10:07:43.620Z,28.27
2023-02-12T10:10:13.377Z,34.28
2023-02-12T10:13:04.401Z,32.08
2023-02-12T10:15:56.823Z,42.10
2023-02-12T10:18:41.695Z,33.92
2023-02-12T10:21:37.777Z,34.05
2023-02-12T10:24:36.217Z,35.65
2023-02-12T10:27:11.329Z,35.53
2023-02-12T10:29:40.775Z,42.30
2023-02-12T10:32:25.868Z,33.22
2023-02-12T10:34:53.757Z,36.47
2023-02-12T10:37:46.499Z,20.88
2023-02-12T10:40:35.316Z,33.35
2023-02-12T10:43:02.943Z,28.35
2023-02-12T10:45:38.465Z,35.22
2023-02-12T10:48:20.878Z,28.48
2023-02-12T10:51:09.213Z,28.27
2023-02-12T10:53:41.299Z,28.25
2023-02-12T10:56:17.109Z,35.38
2023-02-12T10:58:54.248Z,28.52
2023-02-12T11:01:23.037Z,29.75
2023-02-12T11:03:50.113Z,34.45
2023-02-12T11:06:22.837Z,34.15
2023-02-12T11:08:50.423Z,35.08
2023-02-12T11:11:24.644Z,36.30
2023-02-12T11:14:17.067Z,38.95
2023-02-12T11:16:52.594Z,33.35
2023-02-12T11:19:22.262Z,29.83
2023-02-12T11:21:50.366Z,32.42
2023-02-12T11:24:35.669Z,28.20
2023-02-12T11:27:23.825Z,38.77
2023-02-12T11:30:09.688Z,32.63
2023-02-12T11:32:36.899Z,36.22
2023-02-12T11:35:14.196Z,32.60
2023-02-12T11:37:43.779Z,34.60
2023-02-12T11:40:24.294Z,32.30
2023-02-12T11:42:59.163Z,27.58
2023-02-12T11:45:48.387Z,27.63
2023-02-12T11:48:26.092Z,23.00
2023-02-12T11:50:56.284Z,30.92
2023-02-12T11:53:31.955Z,28.55
2023-02-12T11:58:28.723Z,24.23
2023-02-12T12:01:07.412Z,28.58
2023-02-12T12:03:41.151Z,22.33
2023-02-12T12:06:48.088Z,21.58
2023-02-12T12:09:35.419Z,23.15
2023-02-12T12:12:20.393Z,22.95
2023-02-12T12:15:02.956Z,22.15
2023-02-12T12:17:55.289Z,21.20
2023-02-12T12:20:27.242Z,17.65
2023-02-12T12:22:58.002Z,19.65
2023-02-12T12:25:36.832Z,23.73
2023-02-12T12:28:41.013Z,20.60
2023-02-12T12:31:19.417Z,19.67
2023-02-12T12:33:52.772Z,26.25
2023-02-12T12:36:56.925Z,23.45
2023-02-12T12:40:00.865Z,23.33
2023-02-12T12:42:40.954Z,19.73
2023-02-12T12:45:30.150Z,20.17
2023-02-12T12:48:18.212Z,20.40
2023-02-12T12:50:47.781Z,23.02
2023-02-12T12:53:29.167Z,19.15
2023-02-12T12:56:31.729Z,17.85
2023-02-12T12:59:07.532Z,17.52
2023-02-12T13:02:04.810Z,19.10
2023-02-12T13:04:42.824Z,17.25
2023-02-12T13:07:31.032Z,17.63
2023-02-12T13:10:03.448Z,19.40
2023-02-12T13:12:42.134Z,19.77
2023-02-12T13:15:14.821Z,21.00
2023-02-12T13:18:11.634Z,17.80
2023-02-12T13:21:01.945Z,17.10
2023-02-12T13:23:53.785Z,20.73
2023-02-12T13:26:29.886Z,17.67
2023-02-12T13:29:32.037Z,18.38
2023-02-12T13:32:04.925Z,17.35
2023-02-12T13:34:34.826Z,18.38
2023-02-12T13:37:04.043Z,17.70
2023-02-12T13:39:39.271Z,15.73
2023-02-12T13:42:16.918Z,15.40
2023-02-12T13:44:56.547Z,14.63
2023-02-12T13:47:50.605Z,16.35
2023-02-12T13:50:31.749Z,13.05
2023-02-12T13:53:08.026Z,17.88
2023-02-12T13:56:04.440Z,13.00
2023-02-12T13:58:31.056Z,16.58
2023-02-12T14:01:01.909Z,13.68
2023-02-12T14:03:31.004Z,14.88
2023-02-12T14:06:11.209Z,15.30
2023-02-12T14:08:44.803Z,12.70
2023-02-12T14:11:15.326Z,14.80
2023-02-12T14:13:54.864Z,14.68
2023-02-12T14:16:30.925Z,16.50
2023-02-12T14:19:35.050Z,13.77
2023-02-12T14:22:09.581Z,11.15
2023-02-12T14:24:36.218Z,10.48
2023-02-12T14:27:21.834Z,13.38
2023-02-12T14:30:25.818Z,11.85
2023-02-12T14:32:52.507Z,12.07
2023-02-12T14:35:41.229Z,12.55
2023-02-12T14:38:16.951Z,10.32
2023-02-12T14:43:33.887Z,11.73
2023-02-12T14:46:22.337Z,12.20
2023-02-12T14:48:52.138Z,9.02
2023-02-12T14:51:51.031Z,10.07
2023-02-12T14:54:43.833Z,10.77
2023-02-12T14:57:28.322Z,11.70
2023-02-12T15:00:00.340Z,11.85
2023-02-12T15:02:30.088Z,13.52
2023-02-12T15:05:02.222Z,11.50
2023-02-12T15:07:40.995Z,11.98
2023-02-12T15:10:16.139Z,11.00
2023-02-12T15:13:02.190Z,12.82
2023-02-12T15:15:33.397Z,14.88
2023-02-12T15:18:12.104Z,15.63
2023-02-12T15:20:47.853Z,15.82
2023-02-12T15:26:15.864Z,15.50
2023-02-12T15:28:45.747Z,14.80
2023-02-12T15:31:17.614Z,16.48
2023-02-12T15:33:49.727Z,11.18
2023-02-12T15:36:20.100Z,13.98
2023-02-12T15:38:53.157Z,12.23
2023-02-12T15:41:35.013Z,11.95
2023-02-12T15:44:05.124Z,13.77
2023-02-12T15:46:31.886Z,13.18
2023-02-12T15:48:58.611Z,15.05
2023-02-12T15:51:37.632Z,13.75
2023-02-12T15:54:06.845Z,11.98
2023-02-12T15:56:34.692Z,14.38
2023-02-12T15:59:02.955Z,13.60
2023-02-12T16:01:32.708Z,13.27
2023-02-12T16:04:05.262Z,13.10
2023-02-12T16:06:34.001Z,14.13
2023-02-12T16:09:14.046Z,12.65
2023-02-12T16:11:44.176Z,14.30
2023-02-12T16:14:24.977Z,15.10
2023-02-12T16:16:55.463Z,13.70
2023-02-12T16:19:25.022Z,13.27
2023-02-12T16:22:16.717Z,10.98
2023-02-12T16:24:51.465Z,17.25
2023-02-12T16:27:21.908Z,12.80
2023-02-12T16:30:08.025Z,11.27
2023-02-12T16:32:36.688Z,14.82
2023-02-12T16:35:32.891Z,11.63
2023-02-12T16:38:18.331Z,13.10
2023-02-12T16:41:21.012Z,11.75
2023-02-12T16:43:51.384Z,14.60
2023-02-12T16:46:19.371Z,11.10
2023-02-12T16:48:51.956Z,11.13
2023-02-12T16:51:28.769Z,8.95
2023-02-12T16:53:57.929Z,13.20
2023-02-12T16:56:27.762Z,11.70
2023-02-12T16:58:58.217Z,10.23
2023-02-12T17:01:28.276Z,12.15
2023-02-12T17:03:58.153Z,10.35
2023-02-12T17:06:29.881Z,9.55
2023-02-12T17:08:57.388Z,9.23
2023-02-12T17:11:25.629Z,13.45
2023-02-12T17:13:53.846Z,13.25
2023-02-12T17:16:30.228Z,20.25
2023-02-12T17:18:58.662Z,30.27
2023-02-12T17:21:29.105Z,27.55
2023-02-12T17:23:55.980Z,33.33
2023-02-12T17:26:23.857Z,32.05
2023-02-12T17:28:50.569Z,34.05
2023-02-12T17:31:17.492Z,39.58
2023-02-12T17:33:44.219Z,36.97
2023-02-12T17:36:12.012Z,23.60
2023-02-12T17:38:38.743Z,23.40
2023-02-12T17:41:10.523Z,16.58
2023-02-12T17:43:37.316Z,15.10
2023-02-12T17:46:12.320Z,13.48
2023-02-12T17:48:39.055Z,10.02
2023-02-12T17:51:05.925Z,10.05
2023-02-12T17:53:32.720Z,9.60
2023-02-12T17:55:59.379Z,14.13
2023-02-12T17:58:26.098Z,9.50
2023-02-12T18:00:52.894Z,11.40
2023-02-12T18:03:19.555Z,14.15
2023-02-12T18:05:46.261Z,11.73
2023-02-12T18:08:13.057Z,13.38
2023-02-12T18:10:44.028Z,13.52
2023-02-12T18:13:11.478Z,14.20
2023-02-12T18:15:40.677Z,13.73
2023-02-12T18:18:07.999Z,16.45
2023-02-12T18:20:34.781Z,14.27
2023-02-12T18:23:01.511Z,19.30
2023-02-12T18:25:28.225Z,19.58
2023-02-12T18:27:54.899Z,15.27
2023-02-12T18:30:21.858Z,15.02
2023-02-12T18:32:48.749Z,19.42
2023-02-12T18:35:15.408Z,21.23
2023-02-12T18:37:43.324Z,17.70
2023-02-12T18:40:10.977Z,22.95
2023-02-12T18:42:37.669Z,18.52
2023-02-12T18:45:05.004Z,18.65
2023-02-12T18:47:31.891Z,21.63
2023-02-12T18:49:58.582Z,24.42
2023-02-12T18:52:25.491Z,27.27
2023-02-12T18:54:52.277Z,26.48
2023-02-12T18:57:19.517Z,28.25
2023-02-12T18:59:46.317Z,29.40
2023-02-12T19:02:13.825Z,29.50
2023-02-12T19:04:40.718Z,29.45
2023-02-12T19:07:07.609Z,26.23
2023-02-12T19:09:34.377Z,28.88
2023-02-12T19:12:01.200Z,26.13
2023-02-12T19:14:28.395Z,25.63
2023-02-12T19:16:55.396Z,22.55
2023-02-12T19:19:22.820Z,22.55
2023-02-12T19:21:49.687Z,25.55
2023-02-12T19:24:17.271Z,26.40
2023-02-12T19:26:44.338Z,33.00
2023-02-12T19:29:12.525Z,28.88
2023-02-12T19:31:43.710Z,26.20
2023-02-12T19:34:18.125Z,26.70
2023-02-12T19:36:45.311Z,27.77
2023-02-12T19:39:18.315Z,25.35
2023-02-12T19:41:45.549Z,28.27
2023-02-12T19:44:16.729Z,22.77
2023-02-12T19:46:45.344Z,26.23
2023-02-12T19:49:18.608Z,23.80
2023-02-12T19:51:45.642Z,30.92
2023-02-12T19:54:14.475Z,24.50
2023-02-12T19:56:41.917Z,29.17
2023-02-12T19:59:09.271Z,27.83
2023-02-12T20:01:36.039Z,26.13
2023-02-12T20:04:03.383Z,28.85
2023-02-12T20:06:34.796Z,24.70
2023-02-12T20:09:02.032Z,27.90
2023-02-12T20:11:31.435Z,37.80
2023-02-12T20:13:58.595Z,28.50
2023-02-12T20:16:28.388Z,31.20
2023-02-12T20:18:59.504Z,26.40
2023-02-12T20:21:27.843Z,28.35
2023-02-12T20:23:56.070Z,30.38
2023-02-12T20:26:23.822Z,30.08
2023-02-12T20:28:51.241Z,32.88
2023-02-12T20:31:26.805Z,40.20
2023-02-12T20:33:56.366Z,32.65
2023-02-12T20:36:24.503Z,37.78
2023-02-12T20:38:53.546Z,37.85
2023-02-12T20:41:20.405Z,40.45
2023-02-12T20:43:47.032Z,33.70
2023-02-12T20:46:19.632Z,38.70
2023-02-12T20:48:47.244Z,44.25
2023-02-12T20:51:16.943Z,34.83
2023-02-12T20:53:44.324Z,36.28
2023-02-12T20:56:14.168Z,36.55
2023-02-12T20:58:42.065Z,34.60
2023-02-12T21:01:11.678Z,36.80
2023-02-12T21:03:38.955Z,35.20
2023-02-12T21:06:06.244Z,34.83
2023-02-12T21:08:34.801Z,36.20
2023-02-12T21:11:04.420Z,36.05
2023-02-12T21:13:31.220Z,41.65
2023-02-12T21:16:13.127Z,48.80
2023-02-12T21:18:39.872Z,46.90
2023-02-12T21:21:10.058Z,50.78
2023-02-12T21:23:37.315Z,52.42
2023-02-12T21:26:06.222Z,53.40
2023-02-12T21:28:34.059Z,52.00
2023-02-12T21:31:06.777Z,56.95
2023-02-12T21:33:33.906Z,61.92
2023-02-12T21:36:06.773Z,64.22
2023-02-12T21:42:03.971Z,60.95
2023-02-12T21:44:32.594Z,66.00
2023-02-12T21:46:59.381Z,67.65
2023-02-12T21:49:26.495Z,65.28
2023-02-12T21:51:59.014Z,66.10
2023-02-12T21:54:26.502Z,65.65
2023-02-12T21:56:53.185Z,70.72
2023-02-12T21:59:19.846Z,73.70
2023-02-12T22:01:51.830Z,67.47
2023-02-12T22:04:19.473Z,70.38
2023-02-12T22:06:48.271Z,68.72
2023-02-12T22:09:18.033Z,76.97
2023-02-12T22:11:47.887Z,76.45
2023-02-12T22:14:17.174Z,72.22
2023-02-12T22:16:44.312Z,72.10
2023-02-12T22:19:11.137Z,77.88
2023-02-12T22:21:39.759Z,79.22
2023-02-12T22:24:09.170Z,77.47
2023-02-12T22:26:36.348Z,79.78
2023-02-12T22:29:06.826Z,78.97
2023-02-12T22:31:36.699Z,83.75
2023-02-12T22:34:06.978Z,78.97
2023-02-12T22:36:36.518Z,86.13
2023-02-12T22:39:03.753Z,84.80
2023-02-12T22:41:31.158Z,82.00
2023-02-12T22:44:02.847Z,81.25
2023-02-12T22:46:29.511Z,89.90
2023-02-12T22:48:56.233Z,91.50
2023-02-12T22:51:26.098Z,87.68
2023-02-12T22:53:53.685Z,94.05
2023-02-12T22:56:21.002Z,85.05
2023-02-12T22:58:47.704Z,86.35
2023-02-12T23:01:18.335Z,89.80
2023-02-12T23:03:46.025Z,92.13
2023-02-12T23:06:18.688Z,93.60
2023-02-12T23:08:49.006Z,98.82
2023-02-12T23:11:15.622Z,96.07
2023-02-12T23:13:42.557Z,97.30
2023-02-12T23:16:09.255Z,107.15
2023-02-12T23:18:35.969Z,101.72
2023-02-12T23:21:02.919Z,99.93
2023-02-12T23:23:29.905Z,84.22
2023-02-12T23:25:56.825Z,79.95
2023-02-12T23:28:24.062Z,82.80
2023-02-12T23:30:52.223Z,77.25
2023-02-12T23:33:19.846Z,73.97
2023-02-12T23:35:47.912Z,66.85
2023-02-12T23:38:15.790Z,74.63
2023-02-12T23:40:43.028Z,71.07
2023-02-12T23:43:10.023Z,65.57
2023-02-12T23:45:36.907Z,60.33
2023-02-12T23:48:03.822Z,63.50
2023-02-12T23:50:30.713Z,60.97
2023-02-12T23:52:58.802Z,57.90
2023-02-12T23:55:25.499Z,55.75
2023-02-12T23:57:52.160Z,53.72
